Dawson Creek Airport
CYDQ : now visible

Airfield :











YOU CAN JOIN US ON...

 
LOGIN :

Register | Disclaimer

   EN    FR    IT 

 









Legend :    VFR   Marginal VFR   IFR   Intensive IFR   Very Intensive IFR
Visi :
Ceiling :
>= 8 km
>= 3000ft
5 to 8 km
1000 to 3000 ft
1500m to 5 km
500 to 1000 ft
800 to 1500m
200 to 500 ft
< 800m
< 200 ft
Symbols :   Thunderstorms  Fog  Heavy snow  Heavy precipitations  Wind > 20 kt






- Airport Elevation : 2148 ft
- IATA code : YDQ


CYDQ - Dawson Creek

CURRENT METAR :
  • 192125Z AUTO 30007KT 1SM TS HZ FEW240 23/12 A3010 RMK SLP191 DENSITY ALT 3400FT

EXPIRED METARs :
  • 192100Z AUTO 32008G17KT 1SM HZ CLR 23/12 A3009 RMK SLP193 DENSITY ALT 3400FT
  • 192000Z AUTO 27012G18KT 1 1/4SM HZ FEW250 24/12 A3010 RMK SLP200 DENSITY ALT 3500FT
  • 191900Z AUTO 29012G17KT 1 1/2SM HZ FEW230 25/12 A3007 RMK SLP187 DENSITY ALT 3700FT
  • 191806Z AUTO 29008KT 2 1/4SM HZ FEW240 24/12 A3005 RMK SLP177 DENSITY ALT 3500FT
  • 191733Z AUTO 30008KT 5SM HZ FEW240 22/12 A3005 RMK SLP180 DENSITY ALT 3300FT
  • 191700Z AUTO 28011KT 9SM CLR 21/12 A3005 RMK SLP179 DENSITY ALT 3300FT

TAF AMD TAF CYDQ
Valid from the 19 at 21:00 until the 20 at 05:00 UTC


192104Z 1921/2005 32008KT 6SM FU FEW140
TEMPO 1921/1923 1SM VCTS FU BKN120CB
FM192300 31008KT P6SM -SHRA BKN140
TEMPO 1923/2003 VRB15G25KT 3SM TSRA FU OVC110CB
FM200300 11005KT P6SM SCT120
TEMPO 2003/2005 5SM FU RMK FCST BASED ON AUTO OBS. NXT FCST BY 200100Z
CZEG FIR / North America



MET'MAP, your aeronautical weather chart ! - Copyright ORBIFLY December 2007 - Disclaimer

ORBIFLY MET'MAP TEAM :

Programming & Development : Alexandra Zaïnal
Original concept : Baudouin d'Aumeries
Technical & hardware support : Manuel Goepfert
Assistance : Marc-Olivier Méhu




SOURCES & CREDITS :

   NOAA       Earth
Advisory